Time;durP1;ratioP1;P1;durP2;ratioP2;P2;SDS_P1;SDS_P2;PMS_P1;PMS_P2;Temp;Humidity;BMP_temperature;BMP_pressure;BME280_temperature;BME280_humidity;BME280_pressure;Samples;Min_cycle;Max_cycle;Signal;HPM_P1;HPM_P2
2021/06/29 00:00:54;;;;;;;0.10;0.10;;;;;;;-139.38;100.00;63230.50;5030242;28;20225;-75
2021/06/29 00:04:20;;;;;;;0.43;0.43;;;;;;;-139.38;100.00;63230.50;5025668;28;20205;-75
2021/06/29 00:07:46;;;;;;;0.10;0.10;;;;;;;-139.38;100.00;63230.50;5031135;28;20213;-75
2021/06/29 00:11:16;;;;;;;0.10;0.10;;;;;;;-139.38;100.00;63230.50;5035871;28;20222;-74
2021/06/29 00:14:44;;;;;;;0.10;0.10;;;;;;;-139.38;100.00;63230.50;5027775;28;20637;-75
2021/06/29 00:18:10;;;;;;;0.10;0.10;;;;;;;-139.38;100.00;63230.50;5031745;28;20210;-74
2021/06/29 00:21:36;;;;;;;0.10;0.10;;;;;;;-139.38;100.00;63230.50;5032429;28;20574;-74
2021/06/29 00:25:02;;;;;;;0.10;0.10;;;;;;;-139.38;100.00;63230.50;5022824;28;20211;-74
2021/06/29 00:28:29;;;;;;;0.10;0.10;;;;;;;-139.38;100.00;63230.50;5026387;28;20795;-76
2021/06/29 00:31:55;;;;;;;0.10;0.10;;;;;;;-139.38;100.00;63230.50;5030136;28;20220;-74
2021/06/29 00:35:21;;;;;;;0.10;0.10;;;;;;;-139.38;100.00;63230.50;5020649;28;20209;-77
2021/06/29 00:38:47;;;;;;;0.43;0.43;;;;;;;-139.38;100.00;63230.50;5034926;28;20222;-76
2021/06/29 00:42:13;;;;;;;0.10;0.10;;;;;;;-139.38;100.00;63230.50;5028544;28;20203;-76
2021/06/29 00:45:40;;;;;;;0.10;0.10;;;;;;;-139.38;100.00;63230.50;5029336;28;20663;-74
2021/06/29 00:49:06;;;;;;;0.10;0.10;;;;;;;-139.38;100.00;63230.50;5030997;28;20669;-76
2021/06/29 00:52:34;;;;;;;0.10;0.10;;;;;;;-139.38;100.00;63230.50;5019835;28;20716;-76
2021/06/29 00:56:00;;;;;;;0.10;0.10;;;;;;;-139.38;100.00;63230.50;5030540;28;20222;-76
2021/06/29 00:59:25;;;;;;;0.10;0.10;;;;;;;-139.38;100.00;63230.50;5031186;28;20340;-76
2021/06/29 01:02:52;;;;;;;0.10;0.10;;;;;;;-139.38;100.00;63230.50;5029356;28;20211;-77
2021/06/29 01:06:19;;;;;;;0.10;0.10;;;;;;;-139.38;100.00;63230.50;5030451;28;20201;-74
2021/06/29 01:09:45;;;;;;;0.10;0.10;;;;;;;-139.38;100.00;63230.50;5023940;28;20228;-78
2021/06/29 01:13:11;;;;;;;52.93;3.60;;;;;;;-139.38;100.00;63230.50;5027549;28;20232;-76
2021/06/29 01:16:37;;;;;;;0.10;0.10;;;;;;;-139.38;100.00;63230.50;5034573;28;20209;-76
2021/06/29 01:20:12;;;;;;;0.10;0.10;;;;;;;-139.38;100.00;63230.50;5024373;28;20240;-74
2021/06/29 01:23:39;;;;;;;0.10;0.10;;;;;;;-139.38;100.00;63230.50;5030757;28;20211;-76
2021/06/29 01:27:29;;;;;;;0.10;0.10;;;;;;;-139.38;100.00;63230.50;5034758;28;20219;-77
2021/06/29 01:31:03;;;;;;;0.10;0.10;;;;;;;-139.38;100.00;63230.50;5033996;28;20263;-77
2021/06/29 01:34:29;;;;;;;0.10;0.10;;;;;;;-139.38;100.00;63230.50;5034095;28;20222;-76
2021/06/29 01:37:56;;;;;;;0.10;0.10;;;;;;;-139.38;100.00;63230.50;5034103;28;20208;-76
2021/06/29 01:41:24;;;;;;;0.10;0.10;;;;;;;-139.38;100.00;63230.50;5035249;28;20304;-76
2021/06/29 01:44:49;;;;;;;0.10;0.10;;;;;;;-139.38;100.00;63230.50;5032506;28;20235;-76
2021/06/29 01:48:21;;;;;;;0.10;0.10;;;;;;;-139.38;100.00;63230.50;5027461;28;20208;-76
2021/06/29 01:51:47;;;;;;;0.10;0.10;;;;;;;-139.38;100.00;63230.50;5026553;28;20220;-77
2021/06/29 01:55:14;;;;;;;0.10;0.10;;;;;;;-139.38;100.00;63230.50;5034160;28;20209;-76
2021/06/29 01:58:41;;;;;;;0.10;0.10;;;;;;;-139.38;100.00;63230.50;5036139;28;20209;-77
2021/06/29 02:02:06;;;;;;;0.20;0.20;;;;;;;-139.38;100.00;63230.50;5026147;28;20648;-75
2021/06/29 02:05:32;;;;;;;0.10;0.10;;;;;;;-139.38;100.00;63230.50;5026061;28;20208;-75
2021/06/29 02:08:58;;;;;;;0.10;0.10;;;;;;;-139.38;100.00;63230.50;5033497;28;20222;-77
2021/06/29 02:12:25;;;;;;;0.10;0.10;;;;;;;-139.38;100.00;63230.50;5034350;28;20229;-75
2021/06/29 02:15:51;;;;;;;0.10;0.10;;;;;;;-139.38;100.00;63230.50;5031132;28;20214;-75
2021/06/29 02:19:17;;;;;;;0.60;0.60;;;;;;;-139.38;100.00;63230.50;5026896;28;20218;-75
2021/06/29 02:22:44;;;;;;;0.10;0.10;;;;;;;-139.38;100.00;63230.50;5033653;28;20209;-77
2021/06/29 02:26:11;;;;;;;0.10;0.10;;;;;;;-139.38;100.00;63230.50;5025891;28;20224;-75
2021/06/29 02:29:38;;;;;;;0.10;0.10;;;;;;;-139.38;100.00;63230.50;5033575;28;20329;-76
2021/06/29 02:33:04;;;;;;;0.10;0.10;;;;;;;-139.38;100.00;63230.50;5033662;28;20588;-79
2021/06/29 02:36:30;;;;;;;0.10;0.10;;;;;;;-139.38;100.00;63230.50;5032608;28;20681;-76
2021/06/29 02:39:56;;;;;;;0.10;0.10;;;;;;;-139.38;100.00;63230.50;5033461;28;20219;-75
2021/06/29 02:43:22;;;;;;;0.10;0.10;;;;;;;-139.38;100.00;63230.50;5033389;28;20207;-74
2021/06/29 02:46:49;;;;;;;0.10;0.10;;;;;;;-139.38;100.00;63230.50;5032498;28;20303;-75
2021/06/29 02:50:15;;;;;;;0.10;0.10;;;;;;;-139.38;100.00;63230.50;5026588;28;20280;-75
2021/06/29 02:53:41;;;;;;;0.10;0.10;;;;;;;-139.38;100.00;63230.50;5032835;28;20230;-75
2021/06/29 02:57:07;;;;;;;0.10;0.10;;;;;;;-139.38;100.00;63230.50;5025513;28;20220;-75
2021/06/29 03:00:33;;;;;;;0.10;0.10;;;;;;;-139.38;100.00;63230.50;5037815;28;20243;-74
2021/06/29 03:04:00;;;;;;;0.10;0.10;;;;;;;-139.38;100.00;63230.50;5032739;28;20205;-75
2021/06/29 03:07:26;;;;;;;0.10;0.10;;;;;;;-139.38;100.00;63230.50;5033176;28;20219;-74
2021/06/29 03:10:52;;;;;;;0.10;0.10;;;;;;;-139.38;100.00;63230.50;5031635;28;20228;-75
2021/06/29 03:14:17;;;;;;;0.10;0.10;;;;;;;-139.38;100.00;63230.50;5029179;28;20618;-75
2021/06/29 03:17:43;;;;;;;0.10;0.10;;;;;;;-139.38;100.00;63230.50;5026162;28;20685;-74
2021/06/29 03:21:11;;;;;;;0.10;0.10;;;;;;;-139.38;100.00;63230.50;5032519;28;20221;-76
2021/06/29 03:24:37;;;;;;;0.10;0.10;;;;;;;-139.38;100.00;63230.50;5027948;28;20306;-75
2021/06/29 03:28:03;;;;;;;0.10;0.10;;;;;;;-139.38;100.00;63230.50;5030843;28;20203;-74
2021/06/29 03:31:29;;;;;;;0.10;0.10;;;;;;;-139.38;100.00;63230.50;5024829;28;20207;-76
2021/06/29 03:34:55;;;;;;;0.10;0.10;;;;;;;-139.38;100.00;63230.50;5030292;28;20214;-76
2021/06/29 03:38:22;;;;;;;0.10;0.10;;;;;;;-139.38;100.00;63230.50;5026418;28;20205;-75
2021/06/29 03:41:48;;;;;;;0.20;0.20;;;;;;;-139.38;100.00;63230.50;5027990;28;20221;-76
2021/06/29 03:45:14;;;;;;;0.10;0.10;;;;;;;-139.38;100.00;63230.50;5023923;28;20217;-75
2021/06/29 03:48:40;;;;;;;0.10;0.10;;;;;;;-139.38;100.00;63230.50;5027620;28;20284;-75
2021/06/29 03:52:06;;;;;;;0.10;0.10;;;;;;;-139.38;100.00;63230.50;5030204;28;20215;-75
2021/06/29 03:55:33;;;;;;;0.60;0.60;;;;;;;-139.38;100.00;63230.50;5030928;28;20388;-76
2021/06/29 03:59:00;;;;;;;0.73;0.73;;;;;;;-139.38;100.00;63230.50;5030801;28;20203;-75
2021/06/29 04:02:28;;;;;;;0.10;0.10;;;;;;;-139.38;100.00;63230.50;5027898;28;20554;-76
2021/06/29 04:05:53;;;;;;;0.10;0.10;;;;;;;-139.38;100.00;63230.50;5025323;28;20219;-75
2021/06/29 04:09:19;;;;;;;0.10;0.10;;;;;;;-139.38;100.00;63230.50;5025642;28;20210;-75
2021/06/29 04:12:46;;;;;;;0.10;0.10;;;;;;;-139.38;100.00;63230.50;5037768;28;20220;-75
2021/06/29 04:16:31;;;;;;;0.10;0.10;;;;;;;-139.38;100.00;63230.50;5031689;28;20609;-75
2021/06/29 04:19:57;;;;;;;0.10;0.10;;;;;;;-139.38;100.00;63230.50;5029369;28;20271;-75
2021/06/29 04:23:24;;;;;;;0.10;0.10;;;;;;;-139.38;100.00;63230.50;5022546;28;20205;-77
2021/06/29 04:26:51;;;;;;;0.10;0.10;;;;;;;-139.38;100.00;63230.50;5034193;28;20212;-76
2021/06/29 04:30:17;;;;;;;0.10;0.10;;;;;;;-139.38;100.00;63230.50;5034430;28;20241;-75
2021/06/29 04:33:43;;;;;;;0.10;0.10;;;;;;;-139.38;100.00;63230.50;5038374;28;20221;-75
2021/06/29 04:37:09;;;;;;;0.10;0.10;;;;;;;-139.38;100.00;63230.50;5025405;28;20204;-76
2021/06/29 04:40:35;;;;;;;0.10;0.10;;;;;;;-139.38;100.00;63230.50;5024208;28;20239;-77
2021/06/29 04:44:02;;;;;;;0.10;0.10;;;;;;;-139.38;100.00;63230.50;5028789;28;20227;-76
2021/06/29 04:47:28;;;;;;;0.10;0.10;;;;;;;-139.38;100.00;63230.50;5034386;28;20632;-77
2021/06/29 04:50:54;;;;;;;0.10;0.10;;;;;;;-139.38;100.00;63230.50;5035357;28;20282;-77
2021/06/29 04:54:20;;;;;;;0.10;0.10;;;;;;;-139.38;100.00;63230.50;5029431;28;20228;-76
2021/06/29 04:57:46;;;;;;;0.10;0.10;;;;;;;-139.38;100.00;63230.50;5035040;28;20207;-74
2021/06/29 05:01:14;;;;;;;0.10;0.10;;;;;;;-139.38;100.00;63230.50;5023721;28;20224;-76
2021/06/29 05:04:40;;;;;;;0.10;0.10;;;;;;;-139.38;100.00;63230.50;5026275;28;20564;-75
2021/06/29 05:08:06;;;;;;;0.10;0.10;;;;;;;-139.38;100.00;63230.50;5031735;28;20233;-76
2021/06/29 05:11:32;;;;;;;0.33;0.33;;;;;;;-139.38;100.00;63230.50;5029491;28;20233;-75
2021/06/29 05:14:58;;;;;;;0.10;0.10;;;;;;;-139.38;100.00;63230.50;5031226;28;20602;-77
2021/06/29 05:18:25;;;;;;;0.10;0.10;;;;;;;-139.38;100.00;63230.50;5032909;28;20200;-76
2021/06/29 05:21:51;;;;;;;0.10;0.10;;;;;;;-139.38;100.00;63230.50;5030164;28;20212;-77
2021/06/29 05:25:16;;;;;;;0.10;0.10;;;;;;;-139.38;100.00;63230.50;5033460;28;20220;-75
2021/06/29 05:28:43;;;;;;;0.10;0.10;;;;;;;-139.38;100.00;63230.50;5033211;28;20207;-73
2021/06/29 05:32:09;;;;;;;0.10;0.10;;;;;;;-139.38;100.00;63230.50;5024039;28;20194;-74
2021/06/29 05:35:36;;;;;;;0.20;0.20;;;;;;;-139.38;100.00;63230.50;5027895;28;20425;-80
2021/06/29 05:39:01;;;;;;;0.10;0.10;;;;;;;-139.38;100.00;63230.50;5030936;28;20213;-79
2021/06/29 05:42:27;;;;;;;0.10;0.10;;;;;;;-139.38;100.00;63230.50;5036357;28;20213;-74
2021/06/29 05:45:53;;;;;;;0.10;0.10;;;;;;;-139.38;100.00;63230.50;5028543;28;20201;-74
2021/06/29 05:49:19;;;;;;;0.10;0.10;;;;;;;-139.38;100.00;63230.50;5030740;28;20731;-77
2021/06/29 05:52:46;;;;;;;0.10;0.10;;;;;;;-139.38;100.00;63230.50;5029878;28;20208;-78
2021/06/29 05:56:12;;;;;;;0.10;0.10;;;;;;;-139.38;100.00;63230.50;5033926;28;20217;-81
2021/06/29 05:59:38;;;;;;;0.10;0.10;;;;;;;-139.38;100.00;63230.50;5038153;28;20296;-79
2021/06/29 06:03:05;;;;;;;0.10;0.10;;;;;;;-139.38;100.00;63230.50;5037841;28;20199;-76
2021/06/29 06:06:30;;;;;;;0.10;0.10;;;;;;;-139.38;100.00;63230.50;5034958;28;20598;-79
2021/06/29 06:09:58;;;;;;;0.10;0.10;;;;;;;-139.38;100.00;63230.50;5033368;28;20226;-78
2021/06/29 06:13:24;;;;;;;0.10;0.10;;;;;;;-139.38;100.00;63230.50;5030801;28;20206;-78
2021/06/29 06:16:49;;;;;;;0.10;0.10;;;;;;;-139.38;100.00;63230.50;5028380;28;20299;-77
2021/06/29 06:20:17;;;;;;;0.10;0.10;;;;;;;-139.38;100.00;63230.50;5036850;28;20566;-80
2021/06/29 06:23:43;;;;;;;0.10;0.10;;;;;;;-139.38;100.00;63230.50;5032819;28;20604;-77
2021/06/29 06:27:13;;;;;;;0.10;0.10;;;;;;;-139.38;100.00;63230.50;5033161;28;20221;-77
2021/06/29 06:30:41;;;;;;;0.10;0.10;;;;;;;-139.38;100.00;63230.50;5032354;28;20238;-76
2021/06/29 06:34:06;;;;;;;0.10;0.10;;;;;;;-139.38;100.00;63230.50;5031766;28;20223;-74
2021/06/29 06:37:32;;;;;;;0.10;0.10;;;;;;;-139.38;100.00;63230.50;5025423;28;20214;-73
2021/06/29 06:40:58;;;;;;;0.10;0.10;;;;;;;-139.38;100.00;63230.50;5023012;28;20223;-76
2021/06/29 06:44:25;;;;;;;0.20;0.20;;;;;;;-139.38;100.00;63230.50;5022608;28;20242;-75
2021/06/29 06:47:51;;;;;;;0.10;0.10;;;;;;;-139.38;100.00;63230.50;5036434;28;20208;-75
2021/06/29 06:51:17;;;;;;;0.10;0.10;;;;;;;-139.38;100.00;63230.50;5027664;28;20231;-75
2021/06/29 06:54:43;;;;;;;0.10;0.10;;;;;;;-139.38;100.00;63230.50;5027660;28;20692;-72
2021/06/29 06:58:09;;;;;;;0.10;0.10;;;;;;;-139.38;100.00;63230.50;5026233;28;20202;-76
2021/06/29 07:01:38;;;;;;;0.10;0.10;;;;;;;-139.38;100.00;63230.50;5030981;28;20214;-74
2021/06/29 07:05:04;;;;;;;0.10;0.10;;;;;;;-139.38;100.00;63230.50;5025667;28;20203;-70
2021/06/29 07:08:30;;;;;;;0.20;0.20;;;;;;;-139.38;100.00;63230.50;5025044;28;20576;-71
2021/06/29 07:11:56;;;;;;;0.10;0.10;;;;;;;-139.38;100.00;63230.50;5025491;28;20293;-76
2021/06/29 07:15:22;;;;;;;0.10;0.10;;;;;;;-139.38;100.00;63230.50;5028022;28;20261;-72
2021/06/29 07:18:50;;;;;;;0.10;0.10;;;;;;;-139.38;100.00;63230.50;5027944;28;20222;-73
2021/06/29 07:22:15;;;;;;;0.10;0.10;;;;;;;-139.38;100.00;63230.50;5029063;28;20295;-73
2021/06/29 07:25:42;;;;;;;0.10;0.10;;;;;;;-139.38;100.00;63230.50;5026684;28;20202;-75
2021/06/29 07:29:08;;;;;;;0.17;0.17;;;;;;;-139.38;100.00;63230.50;5027112;28;20208;-74
2021/06/29 07:32:34;;;;;;;3.40;1.40;;;;;;;-139.38;100.00;63230.50;5025394;28;20217;-75
2021/06/29 07:36:01;;;;;;;0.10;0.10;;;;;;;-139.38;100.00;63230.50;5028697;28;20228;-75
2021/06/29 07:39:27;;;;;;;0.10;0.10;;;;;;;-139.38;100.00;63230.50;5019871;28;20232;-75
2021/06/29 07:42:55;;;;;;;1.70;1.10;;;;;;;-139.38;100.00;63230.50;5029717;28;20209;-75
2021/06/29 07:46:21;;;;;;;1.70;1.40;;;;;;;-139.38;100.00;63230.50;5023859;28;20211;-74
2021/06/29 07:49:47;;;;;;;1.70;1.10;;;;;;;-139.38;100.00;63230.50;5025852;28;20240;-71
2021/06/29 07:53:14;;;;;;;1.60;1.20;;;;;;;-139.38;100.00;63230.50;5027569;28;20213;-74
2021/06/29 07:56:40;;;;;;;1.27;1.17;;;;;;;-139.38;100.00;63230.50;5020042;28;20925;-74
2021/06/29 08:00:07;;;;;;;1.93;1.00;;;;;;;-139.38;100.00;63230.50;5027381;28;20231;-73
2021/06/29 08:03:33;;;;;;;1.50;1.20;;;;;;;-139.38;100.00;63230.50;5031409;28;20224;-72
2021/06/29 08:06:59;;;;;;;4.35;1.65;;;;;;;-139.38;100.00;63230.50;5023214;28;20201;-74
2021/06/29 08:10:26;;;;;;;1.30;1.00;;;;;;;-139.38;100.00;63230.50;5025268;28;20241;-76
2021/06/29 08:13:52;;;;;;;2.50;1.27;;;;;;;-139.38;100.00;63230.50;5031856;28;20662;-73
2021/06/29 08:17:18;;;;;;;1.83;1.50;;;;;;;-139.38;100.00;63230.50;5024200;28;20229;-72
2021/06/29 08:20:44;;;;;;;2.03;1.30;;;;;;;-139.38;100.00;63230.50;5024243;28;20240;-76
2021/06/29 08:24:10;;;;;;;1.38;1.20;;;;;;;-139.38;100.00;63230.50;5031164;28;20220;-73
2021/06/29 08:27:37;;;;;;;1.60;1.25;;;;;;;-139.38;100.00;63230.50;5027650;28;20213;-73
2021/06/29 08:31:04;;;;;;;1.88;1.20;;;;;;;-139.38;100.00;63230.50;5032833;28;20238;-74
2021/06/29 08:34:30;;;;;;;2.22;1.20;;;;;;;-139.38;100.00;63230.50;5030412;28;20214;-70
2021/06/29 08:37:56;;;;;;;2.05;1.10;;;;;;;-139.38;100.00;63230.50;5029432;28;20209;-73
2021/06/29 08:41:22;;;;;;;1.35;1.20;;;;;;;-139.38;100.00;63230.50;5030980;28;20233;-72
2021/06/29 08:44:50;;;;;;;2.67;1.20;;;;;;;-139.38;100.00;63230.50;5029601;28;20209;-73
2021/06/29 08:48:18;;;;;;;2.72;1.10;;;;;;;-139.38;100.00;63230.50;5034139;28;20225;-71
2021/06/29 08:51:44;;;;;;;2.70;1.08;;;;;;;-139.38;100.00;63230.50;5030821;28;20245;-74
2021/06/29 08:55:11;;;;;;;0.95;0.80;;;;;;;-139.38;100.00;63230.50;5028571;28;20202;-68
2021/06/29 08:58:36;;;;;;;0.90;0.90;;;;;;;-139.38;100.00;63230.50;5029152;28;20316;-71
2021/06/29 09:02:04;;;;;;;3.15;1.00;;;;;;;-139.38;100.00;63230.50;5028075;28;20209;-72
2021/06/29 09:05:44;;;;;;;1.67;0.82;;;;;;;-139.38;100.00;63230.50;5029199;28;20206;-72
2021/06/29 09:09:23;;;;;;;3.92;1.10;;;;;;;-139.38;100.00;63230.50;5024637;28;20203;-72
2021/06/29 09:12:49;;;;;;;1.65;0.90;;;;;;;-139.38;100.00;63230.50;5028308;28;20206;-76
2021/06/29 09:16:27;;;;;;;5.30;1.48;;;;;;;-139.38;100.00;63230.50;5024854;28;20896;-73
2021/06/29 09:19:53;;;;;;;1.42;1.10;;;;;;;-139.38;100.00;63230.50;5024613;28;20233;-73
2021/06/29 09:23:26;;;;;;;1.10;1.00;;;;;;;-139.38;100.00;63230.50;5030676;28;20301;-73
2021/06/29 09:26:53;;;;;;;1.08;0.88;;;;;;;-139.38;100.00;63230.50;5027977;28;20209;-76
2021/06/29 09:30:37;;;;;;;1.45;0.90;;;;;;;-139.38;100.00;63230.50;5023857;28;20719;-75
2021/06/29 09:34:07;;;;;;;2.35;1.40;;;;;;;-139.38;100.00;63230.50;5029590;28;20273;-73
2021/06/29 09:37:36;;;;;;;1.25;1.10;;;;;;;-139.38;100.00;63230.50;5028610;28;20271;-73
2021/06/29 09:41:14;;;;;;;0.95;0.90;;;;;;;-139.38;100.00;63230.50;5027143;28;20274;-71
2021/06/29 09:44:40;;;;;;;0.80;0.80;;;;;;;-139.38;100.00;63230.50;5026389;28;20204;-74
2021/06/29 09:48:29;;;;;;;2.42;1.08;;;;;;;-139.38;100.00;63230.50;5035305;28;20206;-77
2021/06/29 09:51:55;;;;;;;2.03;1.20;;;;;;;-139.38;100.00;63230.50;5028519;28;20655;-71
2021/06/29 09:55:36;;;;;;;2.05;1.05;;;;;;;-139.38;100.00;63230.50;5022055;28;20215;-73
2021/06/29 09:59:12;;;;;;;1.92;1.00;;;;;;;-139.38;100.00;63230.50;5025281;28;20916;-72
2021/06/29 10:02:40;;;;;;;1.20;0.95;;;;;;;-139.38;100.00;63230.50;5029833;28;20206;-72
2021/06/29 10:06:24;;;;;;;1.65;0.98;;;;;;;-139.38;100.00;63230.50;5025110;28;20205;-73
2021/06/29 10:10:05;;;;;;;1.40;1.13;;;;;;;-139.38;100.00;63230.50;5033036;28;20309;-72
2021/06/29 10:13:33;;;;;;;0.90;0.90;;;;;;;-139.38;100.00;63230.50;5029125;28;20213;-83
2021/06/29 10:16:59;;;;;;;1.38;0.95;;;;;;;-139.38;100.00;63230.50;5034444;28;20269;-74
2021/06/29 10:20:37;;;;;;;2.08;1.10;;;;;;;-139.38;100.00;63230.50;5035666;28;20233;-71
2021/06/29 10:24:04;;;;;;;1.70;1.00;;;;;;;-139.38;100.00;63230.50;5030638;28;20206;-70
2021/06/29 10:27:30;;;;;;;1.20;1.10;;;;;;;-139.38;100.00;63230.50;5027909;28;20205;-74
2021/06/29 10:30:56;;;;;;;1.52;0.95;;;;;;;-139.38;100.00;63230.50;5031068;28;20231;-68
2021/06/29 10:34:24;;;;;;;1.45;1.13;;;;;;;-139.38;100.00;63230.50;5031055;28;20207;-70
2021/06/29 10:37:52;;;;;;;1.38;1.00;;;;;;;-139.38;100.00;63230.50;5030946;28;20230;-68
2021/06/29 10:41:21;;;;;;;1.67;0.80;;;;;;;-139.38;100.00;63230.50;5033903;28;20221;-69
2021/06/29 10:44:48;;;;;;;0.93;0.90;;;;;;;-139.38;100.00;63230.50;5030776;28;20210;-68
2021/06/29 10:48:32;;;;;;;1.48;1.20;;;;;;;-139.38;100.00;63230.50;5030960;28;20199;-72
2021/06/29 10:52:01;;;;;;;1.20;1.10;;;;;;;-139.38;100.00;63230.50;5031168;28;20217;-74
2021/06/29 10:55:38;;;;;;;4.00;1.65;;;;;;;-139.38;100.00;63230.50;5032090;28;20210;-69
2021/06/29 10:59:09;;;;;;;1.33;1.13;;;;;;;-139.38;100.00;63230.50;5032388;28;20230;-69
2021/06/29 11:02:35;;;;;;;1.75;1.17;;;;;;;-139.38;100.00;63230.50;5025694;28;20203;-69
2021/06/29 11:06:02;;;;;;;2.13;1.20;;;;;;;-139.38;100.00;63230.50;5025820;28;20199;-75
2021/06/29 11:09:52;;;;;;;1.40;1.23;;;;;;;-139.38;100.00;63230.50;5027463;28;20606;-71
2021/06/29 11:13:39;;;;;;;2.28;1.48;;;;;;;-139.38;100.00;63230.50;5032606;28;20195;-71
2021/06/29 11:17:05;;;;;;;2.95;1.50;;;;;;;-139.38;100.00;63230.50;5032475;28;20195;-80
2021/06/29 11:20:50;;;;;;;2.20;1.30;;;;;;;-139.38;100.00;63230.50;5028050;28;20228;-78
2021/06/29 11:24:38;;;;;;;2.92;1.25;;;;;;;-139.38;100.00;63230.50;5032989;28;20206;-78
2021/06/29 11:28:10;;;;;;;1.83;1.10;;;;;;;-139.38;100.00;63230.50;5033898;28;20207;-71
2021/06/29 11:31:55;;;;;;;2.45;1.38;;;;;;;-139.38;100.00;63230.50;5028995;28;20203;-73
2021/06/29 11:35:44;;;;;;;1.98;1.27;;;;;;;-139.38;100.00;63230.50;5028337;28;20256;-72
2021/06/29 11:39:23;;;;;;;1.92;1.42;;;;;;;-139.38;100.00;63230.50;5031870;28;20230;-71
2021/06/29 11:43:06;;;;;;;2.65;1.30;;;;;;;-139.38;100.00;63230.50;5028281;28;20293;-70
2021/06/29 11:46:47;;;;;;;1.27;1.17;;;;;;;-139.38;100.00;63230.50;5028423;28;20213;-71
2021/06/29 11:50:14;;;;;;;1.92;1.30;;;;;;;-139.38;100.00;63230.50;5027641;28;21003;-71
2021/06/29 11:53:41;;;;;;;2.25;1.20;;;;;;;-139.38;100.00;63230.50;5030619;28;20212;-71
2021/06/29 11:57:15;;;;;;;1.83;1.40;;;;;;;-139.38;100.00;63230.50;5028553;28;20218;-71
2021/06/29 12:00:41;;;;;;;5.40;1.92;;;;;;;-139.38;100.00;63230.50;5029260;28;20224;-71
2021/06/29 12:04:09;;;;;;;2.13;1.20;;;;;;;-139.38;100.00;63230.50;5030002;28;20218;-71
2021/06/29 12:07:36;;;;;;;2.25;1.50;;;;;;;-139.38;100.00;63230.50;5026182;28;20263;-71
2021/06/29 12:11:04;;;;;;;1.55;1.27;;;;;;;-139.38;100.00;63230.50;5022232;28;20329;-71
2021/06/29 12:14:31;;;;;;;2.17;1.25;;;;;;;-139.38;100.00;63230.50;5024035;28;20756;-76
2021/06/29 12:17:59;;;;;;;1.35;1.20;;;;;;;-139.38;100.00;63230.50;5030535;28;20230;-72
2021/06/29 12:21:26;;;;;;;1.40;1.23;;;;;;;-139.38;100.00;63230.50;5029884;28;20230;-72
2021/06/29 12:24:52;;;;;;;2.08;1.17;;;;;;;-139.38;100.00;63230.50;5026184;28;20293;-71
2021/06/29 12:28:18;;;;;;;1.63;1.23;;;;;;;-139.38;100.00;63230.50;5033200;28;20203;-70
2021/06/29 12:31:46;;;;;;;1.67;1.50;;;;;;;-139.38;100.00;63230.50;5030091;28;20689;-72
2021/06/29 12:35:12;;;;;;;2.00;1.20;;;;;;;-139.38;100.00;63230.50;5024942;28;20209;-71
2021/06/29 12:38:56;;;;;;;1.38;1.25;;;;;;;-139.38;100.00;63230.50;5029533;28;20231;-71
2021/06/29 12:42:22;;;;;;;4.10;1.48;;;;;;;-139.38;100.00;63230.50;5030373;28;20210;-71
2021/06/29 12:45:50;;;;;;;1.67;1.48;;;;;;;-139.38;100.00;63230.50;5021259;28;20212;-71
2021/06/29 12:49:19;;;;;;;1.25;1.00;;;;;;;-139.38;100.00;63230.50;5026799;28;20217;-71
2021/06/29 12:52:46;;;;;;;1.30;1.20;;;;;;;-139.38;100.00;63230.50;5028630;28;20241;-71
2021/06/29 12:56:17;;;;;;;1.92;1.33;;;;;;;-139.38;100.00;63230.50;5029466;28;20660;-72
2021/06/29 12:59:45;;;;;;;4.70;1.98;;;;;;;-139.38;100.00;63230.50;5030787;28;20233;-71
2021/06/29 13:03:17;;;;;;;2.67;1.02;;;;;;;-139.38;100.00;63230.50;5030366;28;20247;-69
2021/06/29 13:06:43;;;;;;;3.97;1.20;;;17.80;1.00;;;-139.38;100.00;63230.50;5026971;28;20210;-68
2021/06/29 13:10:14;;;;;;;11.03;1.33;;;16.00;99.90;;;-139.38;100.00;63230.50;5034749;28;20309;-74
2021/06/29 13:13:40;;;;;;;3.33;1.00;;;14.80;99.90;;;-139.38;100.00;63230.50;5032632;28;20576;-78
2021/06/29 13:16:57;;;;;;;0.10;0.10;;;14.20;99.90;;;29.71;100.00;69242.31;5031113;28;20209;-76
2021/06/29 13:20:04;;;;;;;0.10;0.10;;;14.20;99.90;;;29.71;100.00;69242.31;5031849;28;20231;-79
2021/06/29 13:22:40;;;;;;;0.10;0.10;;;14.10;99.90;;;-139.38;100.00;63230.50;5035697;28;20202;-74
2021/06/29 13:26:07;;;;;;;0.10;0.10;;;14.40;99.90;;;-139.38;100.00;63230.50;5033864;28;20195;-75
2021/06/29 13:29:34;;;;;;;0.10;0.10;;;14.60;99.90;;;-139.38;100.00;63230.50;5033262;28;20248;-71
2021/06/29 13:33:00;;;;;;;0.10;0.10;;;14.80;99.90;;;-139.38;100.00;63230.50;5034532;28;20198;-69
2021/06/29 13:36:28;;;;;;;0.10;0.10;;;14.90;99.90;;;-139.38;100.00;63230.50;5027214;28;20202;-68
2021/06/29 13:39:55;;;;;;;0.10;0.10;;;14.70;99.90;;;-139.38;100.00;63230.50;5030426;28;20236;-69
2021/06/29 13:43:23;;;;;;;0.10;0.10;;;14.70;99.90;;;-139.38;100.00;63230.50;5034351;28;20659;-69
2021/06/29 13:47:02;;;;;;;0.10;0.10;;;14.70;99.90;;;-139.38;100.00;63230.50;5034064;28;20242;-69
2021/06/29 13:50:33;;;;;;;0.10;0.10;;;14.70;99.90;;;-139.38;100.00;63230.50;5028536;28;20226;-68
2021/06/29 13:53:54;;;;;;;0.10;0.10;;;14.70;99.90;;;-139.38;74.23;63230.50;5035048;28;20678;-69
2021/06/29 13:57:33;;;;;;;0.10;0.10;;;14.60;99.90;;;-139.38;100.00;63230.50;5028022;28;20664;-68
2021/06/29 14:00:59;;;;;;;0.10;0.10;;;14.60;99.90;;;-139.38;100.00;63230.50;5032599;28;20239;-67
2021/06/29 14:04:27;;;;;;;0.10;0.10;;;14.70;99.90;;;-139.38;100.00;63230.50;5027804;28;20202;-68
2021/06/29 14:08:12;;;;;;;0.10;0.10;;;14.80;99.90;;;-139.38;100.00;63230.50;5031907;28;20555;-68
2021/06/29 14:11:38;;;;;;;0.10;0.10;;;14.90;99.90;;;-139.38;100.00;63230.50;5033739;28;20206;-68
2021/06/29 14:14:06;;;;;;;0.10;0.10;;;14.90;99.90;;;29.78;100.00;57829.13;5029177;28;20203;-69
2021/06/29 14:17:32;;;;;;;0.10;0.10;;;14.90;99.90;;;-139.38;100.00;63230.50;5032983;28;20207;-74
2021/06/29 14:20:42;;;;;;;0.10;0.10;;;14.90;99.90;;;30.73;19.45;69351.53;5032329;28;20227;-71
2021/06/29 14:24:10;;;;;;;0.10;0.10;;;14.80;99.90;;;-139.38;100.00;63230.50;5032384;28;20200;-69
2021/06/29 14:27:36;;;;;;;0.10;0.10;;;14.90;99.90;;;-139.38;100.00;63230.50;5033274;28;20269;-69
2021/06/29 14:31:02;;;;;;;0.10;0.10;;;14.80;99.90;;;-139.38;100.00;63230.50;5030624;28;20261;-69
2021/06/29 14:34:30;;;;;;;0.10;0.10;;;14.70;99.90;;;-139.38;100.00;63230.50;5029974;28;20205;-67
2021/06/29 14:37:55;;;;;;;0.10;0.10;;;14.50;99.90;;;-139.38;100.00;63230.50;5030318;28;20198;-70
2021/06/29 14:41:23;;;;;;;0.10;0.10;;;14.50;99.90;;;-139.38;100.00;63230.50;5030917;28;20226;-68
2021/06/29 14:44:49;;;;;;;0.10;0.10;;;14.40;99.90;;;-139.38;100.00;63230.50;5029072;28;21041;-75
2021/06/29 14:48:14;;;;;;;0.13;0.13;;;14.40;99.90;;;-139.38;100.00;63230.50;5031456;28;20203;-79
2021/06/29 14:51:41;;;;;;;0.10;0.10;;;14.40;99.90;;;-139.38;100.00;63230.50;5035329;28;20217;-79
2021/06/29 14:55:07;;;;;;;0.10;0.10;;;14.30;99.90;;;-139.38;100.00;63230.50;5039924;28;20205;-80
2021/06/29 14:58:34;;;;;;;0.10;0.10;;;14.30;99.90;;;-139.38;100.00;63230.50;5030598;28;20202;-78
2021/06/29 15:02:00;;;;;;;0.10;0.10;;;14.40;99.90;;;-139.38;100.00;63230.50;5032414;28;20203;-75
2021/06/29 15:05:26;;;;;;;0.10;0.10;;;14.50;99.90;;;-139.38;100.00;63230.50;5032923;28;20206;-78
2021/06/29 15:08:52;;;;;;;0.10;0.10;;;14.30;99.90;;;-139.38;100.00;63230.50;5025446;28;20295;-76
2021/06/29 15:12:18;;;;;;;0.10;0.10;;;14.20;99.90;;;-139.38;100.00;63230.50;5031760;28;20210;-72
2021/06/29 15:15:44;;;;;;;0.10;0.10;;;14.70;99.90;;;-139.38;100.00;63230.50;5030908;28;20207;-70
2021/06/29 15:19:10;;;;;;;0.10;0.10;;;14.70;99.90;;;-139.38;100.00;63230.50;5026993;28;20203;-73
2021/06/29 15:22:35;;;;;;;0.10;0.10;;;14.70;99.90;;;-139.38;100.00;63230.50;5031617;28;20205;-72
2021/06/29 15:26:01;;;;;;;0.10;0.10;;;14.80;99.90;;;-139.38;100.00;63230.50;5030389;28;20299;-74